createdAt,value
2019-02-20T00:00:01.833Z,98676.18
2019-02-20T00:02:33.619Z,98680.95
2019-02-20T00:05:04.122Z,98678.94
2019-02-20T00:07:34.847Z,98680.98
2019-02-20T00:10:05.638Z,98682.23
2019-02-20T00:12:36.253Z,98678.44
2019-02-20T00:15:06.753Z,98682.30
2019-02-20T00:17:37.158Z,98677.09
2019-02-20T00:20:08.033Z,98684.10
2019-02-20T00:22:40.636Z,98676.52
2019-02-20T00:25:11.244Z,98681.80
2019-02-20T00:27:41.641Z,98680.98
2019-02-20T00:30:11.987Z,98684.77
2019-02-20T00:32:42.263Z,98689.81
2019-02-20T00:35:12.371Z,98689.81
2019-02-20T00:37:42.591Z,98691.34
2019-02-20T00:40:12.746Z,98694.95
2019-02-20T00:42:43.047Z,98691.28
2019-02-20T00:45:47.812Z,98692.21
2019-02-20T00:48:26.332Z,98693.05
2019-02-20T00:51:04.697Z,98696.95
2019-02-20T00:53:40.301Z,98700.80
2019-02-20T00:56:10.423Z,98705.84
2019-02-20T00:58:40.733Z,98700.50
2019-02-20T01:01:11.001Z,98711.48
2019-02-20T01:03:41.122Z,98704.51
2019-02-20T01:06:11.360Z,98708.58
2019-02-20T01:08:41.972Z,98709.66
2019-02-20T01:11:12.273Z,98703.69
2019-02-20T01:13:42.787Z,98713.72
2019-02-20T01:16:13.094Z,98706.43
2019-02-20T01:18:43.413Z,98714.63
2019-02-20T01:21:13.613Z,98712.89
2019-02-20T01:23:43.802Z,98712.20
2019-02-20T01:26:13.944Z,98713.59
2019-02-20T01:28:44.091Z,98710.42
2019-02-20T01:31:14.316Z,98710.92
2019-02-20T01:33:44.457Z,98709.73
2019-02-20T01:36:14.697Z,98706.91
2019-02-20T01:38:44.881Z,98708.00
2019-02-20T01:41:15.106Z,98711.52
2019-02-20T01:43:46.308Z,98711.52
2019-02-20T01:46:16.415Z,98709.91
2019-02-20T01:48:46.702Z,98708.06
2019-02-20T01:51:17.238Z,98705.59
2019-02-20T01:53:47.793Z,98705.21
2019-02-20T01:56:19.096Z,98701.84
2019-02-20T01:58:49.241Z,98712.38
2019-02-20T02:01:19.565Z,98703.31
2019-02-20T02:03:49.798Z,98700.73
2019-02-20T02:06:19.952Z,98700.19
2019-02-20T02:08:50.090Z,98690.63
2019-02-20T02:11:20.339Z,98703.92
2019-02-20T02:13:50.504Z,98701.95
2019-02-20T02:16:20.796Z,98699.27
2019-02-20T02:18:50.954Z,98693.66
2019-02-20T02:21:21.144Z,98701.09
2019-02-20T02:23:51.263Z,98701.09
2019-02-20T02:26:21.442Z,98698.06
2019-02-20T02:28:51.573Z,98699.57
2019-02-20T02:31:21.803Z,98700.61
2019-02-20T02:33:52.095Z,98700.02
2019-02-20T02:36:22.217Z,98694.41
2019-02-20T02:38:52.361Z,98693.41
2019-02-20T02:41:23.552Z,98700.73
2019-02-20T02:43:53.732Z,98695.95
2019-02-20T02:46:24.086Z,98697.70
2019-02-20T02:48:54.368Z,98696.69
2019-02-20T02:51:25.603Z,98699.87
2019-02-20T02:53:55.724Z,98693.30
2019-02-20T02:56:25.975Z,98694.73
2019-02-20T02:58:56.453Z,98690.66
2019-02-20T03:01:26.999Z,98688.75
2019-02-20T03:03:57.214Z,98691.18
2019-02-20T03:06:27.387Z,98685.56
2019-02-20T03:08:57.749Z,98692.00
2019-02-20T03:11:27.928Z,98685.41
2019-02-20T03:13:58.197Z,98696.72
2019-02-20T03:16:28.537Z,98693.23
2019-02-20T03:18:58.692Z,98690.80
2019-02-20T03:21:29.032Z,98692.41
2019-02-20T03:23:59.631Z,98692.43
2019-02-20T03:26:29.924Z,98692.07
2019-02-20T03:29:00.110Z,98691.58
2019-02-20T03:31:30.588Z,98695.89
2019-02-20T03:34:00.921Z,98690.73
2019-02-20T03:36:31.020Z,98689.99
2019-02-20T03:39:01.338Z,98691.80
2019-02-20T03:41:33.088Z,98690.75
2019-02-20T03:44:03.475Z,98697.48
2019-02-20T03:46:33.588Z,98689.66
2019-02-20T03:49:03.986Z,98696.18
2019-02-20T03:51:34.101Z,98694.10
2019-02-20T03:54:04.356Z,98699.50
2019-02-20T03:56:34.610Z,98695.93
2019-02-20T03:59:04.838Z,98700.66
2019-02-20T04:01:34.977Z,98697.13
2019-02-20T04:04:05.531Z,98703.63
2019-02-20T04:06:35.963Z,98714.02
2019-02-20T04:09:07.970Z,98705.37
2019-02-20T04:11:38.279Z,98706.13
2019-02-20T04:14:08.560Z,98700.44
2019-02-20T04:16:42.627Z,98695.35
2019-02-20T04:19:12.802Z,98698.35
2019-02-20T04:21:43.083Z,98699.23
2019-02-20T04:24:13.501Z,98700.13
2019-02-20T04:26:43.846Z,98698.72
2019-02-20T04:29:14.312Z,98704.31
2019-02-20T04:31:44.779Z,98702.25
2019-02-20T04:34:15.009Z,98699.50
2019-02-20T04:36:45.312Z,98697.44
2019-02-20T04:39:15.543Z,98705.70
2019-02-20T04:41:45.788Z,98708.25
2019-02-20T04:44:15.917Z,98712.23
2019-02-20T04:46:46.025Z,98715.24
2019-02-20T04:49:16.347Z,98708.62
2019-02-20T04:51:46.632Z,98717.95
2019-02-20T04:54:16.905Z,98719.61
2019-02-20T04:56:47.019Z,98715.63
2019-02-20T04:59:17.153Z,98721.39
2019-02-20T05:01:47.264Z,98708.37
2019-02-20T05:04:17.697Z,98717.18
2019-02-20T05:06:47.836Z,98719.60
2019-02-20T05:09:18.059Z,98711.19
2019-02-20T05:11:48.155Z,98712.37
2019-02-20T05:14:18.315Z,98714.28
2019-02-20T05:16:48.518Z,98714.88
2019-02-20T05:19:18.796Z,98711.78
2019-02-20T05:21:49.027Z,98711.91
2019-02-20T05:24:24.797Z,98713.86
2019-02-20T05:26:51.043Z,98717.23
2019-02-20T05:29:21.278Z,98707.32
2019-02-20T05:31:51.670Z,98712.52
2019-02-20T05:34:21.861Z,98714.88
2019-02-20T05:36:52.184Z,98722.86
2019-02-20T05:39:22.403Z,98725.52
2019-02-20T05:41:52.628Z,98720.80
2019-02-20T05:44:22.907Z,98724.05
2019-02-20T05:46:53.144Z,98719.39
2019-02-20T05:49:23.602Z,98730.04
2019-02-20T05:51:54.038Z,98737.05
2019-02-20T05:54:33.811Z,98732.30
2019-02-20T05:56:56.455Z,98731.59
2019-02-20T05:59:26.642Z,98729.66
2019-02-20T06:01:56.957Z,98735.72
2019-02-20T06:04:27.975Z,98739.80
2019-02-20T06:06:58.354Z,98740.53
2019-02-20T06:09:28.544Z,98736.92
2019-02-20T06:11:58.740Z,98738.47
2019-02-20T06:14:28.882Z,98748.03
2019-02-20T06:16:59.234Z,98746.31
2019-02-20T06:19:29.491Z,98751.14
2019-02-20T06:21:59.624Z,98752.48
2019-02-20T06:24:29.992Z,98750.67
2019-02-20T06:27:00.136Z,98755.73
2019-02-20T06:29:30.627Z,98756.39
2019-02-20T06:32:02.123Z,98753.73
2019-02-20T06:34:33.310Z,98757.93
2019-02-20T06:37:05.483Z,98762.67
2019-02-20T06:39:35.842Z,98770.51
2019-02-20T06:42:06.035Z,98768.97
2019-02-20T06:44:36.419Z,98768.43
2019-02-20T06:47:06.892Z,98778.34
2019-02-20T06:49:37.330Z,98787.59
2019-02-20T06:52:07.603Z,98780.50
2019-02-20T06:54:37.894Z,98774.66
2019-02-20T06:57:08.091Z,98778.50
2019-02-20T06:59:38.279Z,98774.07
2019-02-20T07:02:08.452Z,98781.59
2019-02-20T07:04:39.008Z,98784.56
2019-02-20T07:07:30.834Z,98786.48
2019-02-20T07:10:38.338Z,98787.67
2019-02-20T07:13:31.934Z,98788.41
2019-02-20T07:16:34.391Z,98788.59
2019-02-20T07:19:20.355Z,98793.02
2019-02-20T07:22:26.868Z,98794.27
2019-02-20T07:25:31.653Z,98805.83
2019-02-20T07:28:55.924Z,98799.96
2019-02-20T07:31:26.188Z,98799.70
2019-02-20T07:33:56.499Z,98806.93
2019-02-20T07:36:27.002Z,98807.04
2019-02-20T07:38:57.622Z,98810.34
2019-02-20T07:41:27.838Z,98817.10
2019-02-20T07:43:58.179Z,98811.34
2019-02-20T07:46:28.452Z,98805.50
2019-02-20T07:48:58.930Z,98816.22
2019-02-20T07:51:29.307Z,98811.45
2019-02-20T07:53:59.658Z,98811.70
2019-02-20T07:56:31.110Z,98807.77
2019-02-20T07:59:01.287Z,98809.84
2019-02-20T08:01:31.442Z,98814.69
2019-02-20T08:04:01.659Z,98810.16
2019-02-20T08:06:31.882Z,98817.13
2019-02-20T08:09:02.487Z,98820.14
2019-02-20T08:11:34.733Z,98818.47
2019-02-20T08:14:05.244Z,98814.87
2019-02-20T08:16:36.583Z,98821.86
2019-02-20T08:19:06.759Z,98823.23
2019-02-20T08:21:37.035Z,98825.55
2019-02-20T08:24:07.225Z,98835.64
2019-02-20T08:26:37.782Z,98828.56
2019-02-20T08:29:08.348Z,98830.19
2019-02-20T08:31:38.596Z,98821.30
2019-02-20T08:34:08.882Z,98826.97
2019-02-20T08:36:39.012Z,98829.20
2019-02-20T08:39:09.688Z,98827.61
2019-02-20T08:41:40.108Z,98832.75
2019-02-20T08:44:10.531Z,98837.45
2019-02-20T08:46:40.784Z,98834.52
2019-02-20T08:49:10.974Z,98837.20
2019-02-20T08:51:41.293Z,98834.48
2019-02-20T08:54:11.932Z,98842.19
2019-02-20T08:56:42.251Z,98844.69
2019-02-20T08:59:12.647Z,98840.17
2019-02-20T09:01:43.089Z,98843.02
2019-02-20T09:04:13.618Z,98847.52
2019-02-20T09:06:44.343Z,98844.94
2019-02-20T09:09:14.640Z,98847.74
2019-02-20T09:11:45.683Z,98845.23
2019-02-20T09:14:15.969Z,98830.08
2019-02-20T09:16:46.365Z,98831.89
2019-02-20T09:19:17.073Z,98841.55
2019-02-20T09:21:47.520Z,98837.99
2019-02-20T09:24:17.915Z,98848.04
2019-02-20T09:26:48.391Z,98842.93
2019-02-20T09:29:18.877Z,98852.11
2019-02-20T09:31:49.158Z,98839.12
2019-02-20T09:34:19.387Z,98835.08
2019-02-20T09:36:49.614Z,98832.93
2019-02-20T09:39:40.036Z,98834.51
2019-02-20T09:42:12.145Z,98839.12
2019-02-20T09:44:51.517Z,98848.95
2019-02-20T09:47:21.755Z,98845.86
2019-02-20T09:49:52.117Z,98855.31
2019-02-20T09:52:22.551Z,98855.09
2019-02-20T09:54:53.045Z,98856.86
2019-02-20T09:57:23.318Z,98862.48
2019-02-20T09:59:53.673Z,98858.24
2019-02-20T10:02:23.790Z,98861.45
2019-02-20T10:04:54.030Z,98858.02
2019-02-20T10:07:24.186Z,98855.08
2019-02-20T10:09:54.812Z,98858.30
2019-02-20T10:12:25.330Z,98867.01
2019-02-20T10:14:55.559Z,98869.58
2019-02-20T10:17:25.906Z,98878.00
2019-02-20T10:19:56.079Z,98884.70
2019-02-20T10:22:26.251Z,98879.03
2019-02-20T10:24:56.511Z,98883.36
2019-02-20T10:27:26.774Z,98884.50
2019-02-20T10:29:56.979Z,98885.88
2019-02-20T10:32:28.244Z,98878.63
2019-02-20T10:34:58.398Z,98883.20
2019-02-20T10:37:29.059Z,98879.70
2019-02-20T10:39:59.555Z,98877.28
2019-02-20T10:42:30.002Z,98879.76
2019-02-20T10:45:00.795Z,98879.67
2019-02-20T10:47:31.347Z,98871.19
2019-02-20T10:50:01.565Z,98874.56
2019-02-20T10:52:32.233Z,98879.20
2019-02-20T10:55:02.575Z,98871.62
2019-02-20T10:57:33.170Z,98881.91
2019-02-20T11:00:03.807Z,98878.09
2019-02-20T11:02:36.223Z,98880.59
2019-02-20T11:05:06.680Z,98879.03
2019-02-20T11:07:37.661Z,98875.34
2019-02-20T11:10:12.475Z,98875.97
2019-02-20T11:12:42.979Z,98875.77
2019-02-20T11:15:13.726Z,98867.48
2019-02-20T11:17:45.152Z,98872.55
2019-02-20T11:20:15.456Z,98869.30
2019-02-20T11:22:45.894Z,98866.11
2019-02-20T11:25:16.594Z,98868.13
2019-02-20T11:27:47.070Z,98863.26
2019-02-20T11:30:18.979Z,98867.41
2019-02-20T11:32:49.615Z,98866.84
2019-02-20T11:35:20.351Z,98866.84
2019-02-20T11:37:50.607Z,98861.19
2019-02-20T11:40:21.137Z,98863.55
2019-02-20T11:42:51.822Z,98863.08
2019-02-20T11:45:22.255Z,98868.67
2019-02-20T11:47:52.704Z,98862.30
2019-02-20T11:50:23.468Z,98859.34
2019-02-20T11:52:53.953Z,98862.72
2019-02-20T11:55:24.384Z,98852.84
2019-02-20T11:58:00.639Z,98851.83
2019-02-20T12:00:27.985Z,98851.17
2019-02-20T12:02:58.470Z,98844.41
2019-02-20T12:05:29.007Z,98847.70
2019-02-20T12:07:59.551Z,98847.02
2019-02-20T12:10:30.143Z,98842.41
2019-02-20T12:13:01.231Z,98848.26
2019-02-20T12:15:31.744Z,98843.69
2019-02-20T12:18:01.985Z,98851.26
2019-02-20T12:20:32.709Z,98852.22
2019-02-20T12:23:03.754Z,98851.05
2019-02-20T12:25:34.621Z,98847.93
2019-02-20T12:28:06.901Z,98841.50
2019-02-20T12:30:38.077Z,98847.12
2019-02-20T12:33:10.320Z,98842.59
2019-02-20T12:35:42.278Z,98844.86
2019-02-20T12:38:14.805Z,98852.84
2019-02-20T12:40:45.240Z,98850.81
2019-02-20T12:43:15.990Z,98851.13
2019-02-20T12:45:46.357Z,98839.78
2019-02-20T12:48:16.595Z,98844.52
2019-02-20T12:50:47.175Z,98848.29
2019-02-20T12:53:17.516Z,98847.20
2019-02-20T12:55:48.328Z,98845.23
2019-02-20T12:58:20.529Z,98847.43
2019-02-20T13:00:52.380Z,98848.91
2019-02-20T13:03:23.003Z,98837.38
2019-02-20T13:05:53.777Z,98838.06
2019-02-20T13:08:25.361Z,98839.11
2019-02-20T13:10:57.284Z,98836.09
2019-02-20T13:13:27.678Z,98841.84
2019-02-20T13:15:58.150Z,98846.30
2019-02-20T13:18:28.849Z,98838.21
2019-02-20T13:20:59.364Z,98838.88
2019-02-20T13:23:29.721Z,98841.22
2019-02-20T13:26:00.368Z,98838.38
2019-02-20T13:28:30.808Z,98827.50
2019-02-20T13:31:01.956Z,98834.18
2019-02-20T13:33:32.285Z,98833.64
2019-02-20T13:36:03.167Z,98830.55
2019-02-20T13:38:33.431Z,98825.49
2019-02-20T13:41:03.831Z,98826.12
2019-02-20T13:43:34.127Z,98826.02
2019-02-20T13:46:04.695Z,98824.44
2019-02-20T13:48:35.213Z,98824.33
2019-02-20T13:51:05.599Z,98823.13
2019-02-20T13:53:36.244Z,98831.27
2019-02-20T13:56:07.006Z,98827.67
2019-02-20T13:58:37.231Z,98824.56
2019-02-20T14:01:08.898Z,98828.36
2019-02-20T14:03:39.461Z,98826.38
2019-02-20T14:06:10.194Z,98826.89
2019-02-20T14:08:40.598Z,98827.73
2019-02-20T14:11:11.268Z,98827.11
2019-02-20T14:13:41.786Z,98822.72
2019-02-20T14:16:12.263Z,98822.72
2019-02-20T14:18:42.553Z,98824.32
2019-02-20T14:21:12.901Z,98827.44
2019-02-20T14:23:43.679Z,98829.66
2019-02-20T14:26:14.347Z,98823.86
2019-02-20T14:28:44.794Z,98830.78
2019-02-20T14:31:16.262Z,98826.93
2019-02-20T14:33:46.678Z,98822.48
2019-02-20T14:36:16.880Z,98826.68
2019-02-20T14:38:48.013Z,98826.54
2019-02-20T14:41:18.736Z,98827.65
2019-02-20T14:43:49.199Z,98832.69
2019-02-20T14:46:19.584Z,98824.80
2019-02-20T14:48:49.915Z,98830.00
2019-02-20T14:51:20.874Z,98827.58
2019-02-20T14:53:51.848Z,98828.36
2019-02-20T14:56:22.142Z,98834.05
2019-02-20T14:58:52.611Z,98821.63
2019-02-20T15:01:23.184Z,98818.09
2019-02-20T15:03:53.585Z,98818.96
2019-02-20T15:06:24.161Z,98823.70
2019-02-20T15:08:54.733Z,98819.94
2019-02-20T15:11:25.294Z,98817.19
2019-02-20T15:13:56.542Z,98823.06
2019-02-20T15:16:26.734Z,98820.72
2019-02-20T15:18:57.457Z,98823.72
2019-02-20T15:21:28.079Z,98817.05
2019-02-20T15:23:58.369Z,98824.61
2019-02-20T15:26:28.686Z,98820.50
2019-02-20T15:28:59.267Z,98819.83
2019-02-20T15:31:33.717Z,98819.95
2019-02-20T15:34:01.871Z,98812.69
2019-02-20T15:36:34.035Z,98812.67
2019-02-20T15:39:05.518Z,98818.45
2019-02-20T15:41:37.548Z,98819.76
2019-02-20T15:44:07.706Z,98817.76
2019-02-20T15:46:37.966Z,98820.98
2019-02-20T15:49:08.799Z,98819.14
2019-02-20T15:51:39.130Z,98817.98
2019-02-20T15:54:09.481Z,98825.70
2019-02-20T15:56:39.782Z,98828.27
2019-02-20T15:59:10.087Z,98823.52
2019-02-20T16:01:40.932Z,98824.39
2019-02-20T16:04:11.302Z,98820.76
2019-02-20T16:06:41.744Z,98820.37
2019-02-20T16:09:12.398Z,98817.59
2019-02-20T16:11:42.775Z,98820.43
2019-02-20T16:14:13.156Z,98824.93
2019-02-20T16:16:43.765Z,98822.52
2019-02-20T16:19:14.271Z,98826.54
2019-02-20T16:21:44.626Z,98825.46
2019-02-20T16:24:14.859Z,98822.16
2019-02-20T16:26:45.689Z,98822.41
2019-02-20T16:29:16.175Z,98817.02
2019-02-20T16:31:46.976Z,98821.56
2019-02-20T16:34:17.996Z,98822.13
2019-02-20T16:36:49.313Z,98821.80
2019-02-20T16:39:19.821Z,98812.22
2019-02-20T16:41:50.021Z,98814.94
2019-02-20T16:44:20.345Z,98821.59
2019-02-20T16:46:50.567Z,98832.84
2019-02-20T16:49:20.834Z,98839.11
2019-02-20T16:51:52.352Z,98839.47
2019-02-20T16:54:23.203Z,98848.80
2019-02-20T16:56:53.539Z,98848.03
2019-02-20T16:59:24.343Z,98847.81
2019-02-20T17:01:54.630Z,98854.62
2019-02-20T17:04:25.437Z,98858.20
2019-02-20T17:06:55.988Z,98860.38
2019-02-20T17:09:26.309Z,98860.13
2019-02-20T17:11:57.073Z,98865.55
2019-02-20T17:14:27.656Z,98871.25
2019-02-20T17:16:58.002Z,98870.43
2019-02-20T17:19:28.927Z,98883.10
2019-02-20T17:21:59.138Z,98879.58
2019-02-20T17:24:29.466Z,98879.26
2019-02-20T17:27:00.072Z,98886.27
2019-02-20T17:29:30.504Z,98897.55
2019-02-20T17:32:00.892Z,98893.66
2019-02-20T17:34:31.234Z,98893.33
2019-02-20T17:37:01.566Z,98904.00
2019-02-20T17:39:32.146Z,98897.23
2019-02-20T17:42:02.846Z,98896.28
2019-02-20T17:44:33.363Z,98905.65
2019-02-20T17:47:03.731Z,98904.55
2019-02-20T17:49:34.060Z,98905.60
2019-02-20T17:52:04.712Z,98904.50
2019-02-20T17:54:35.363Z,98905.30
2019-02-20T17:57:05.638Z,98905.54
2019-02-20T17:59:36.083Z,98912.77
2019-02-20T18:02:06.764Z,98916.27
2019-02-20T18:04:37.188Z,98911.16
2019-02-20T18:07:07.510Z,98918.08
2019-02-20T18:09:37.750Z,98920.77
2019-02-20T18:12:08.039Z,98914.02
2019-02-20T18:14:38.682Z,98917.52
2019-02-20T18:17:09.218Z,98915.89
2019-02-20T18:19:39.533Z,98927.67
2019-02-20T18:22:10.021Z,98925.95
2019-02-20T18:24:40.832Z,98929.38
2019-02-20T18:27:12.250Z,98934.69
2019-02-20T18:29:42.823Z,98930.57
2019-02-20T18:32:14.159Z,98936.11
2019-02-20T18:34:44.591Z,98934.90
2019-02-20T18:37:14.845Z,98935.09
2019-02-20T18:39:45.329Z,98933.05
2019-02-20T18:42:15.701Z,98932.05
2019-02-20T18:44:46.271Z,98935.39
2019-02-20T18:47:17.107Z,98932.02
2019-02-20T18:49:49.425Z,98934.78
2019-02-20T18:52:19.698Z,98943.56
2019-02-20T18:54:50.637Z,98936.77
2019-02-20T18:57:21.178Z,98946.91
2019-02-20T18:59:51.586Z,98948.41
2019-02-20T19:02:22.511Z,98942.91
2019-02-20T19:04:52.964Z,98950.82
2019-02-20T19:07:24.122Z,98950.21
2019-02-20T19:09:54.936Z,98949.64
2019-02-20T19:13:28.880Z,98952.53
2019-02-20T19:16:22.294Z,98958.58
2019-02-20T19:19:33.424Z,98958.57
2019-02-20T19:22:43.715Z,98955.75
2019-02-20T19:25:53.341Z,98959.70
2019-02-20T19:28:52.576Z,98971.28
2019-02-20T19:32:04.113Z,98972.62
2019-02-20T19:35:35.013Z,98971.66
2019-02-20T19:38:44.462Z,98976.53
2019-02-20T19:41:45.496Z,98975.58
2019-02-20T19:44:44.257Z,98978.86
2019-02-20T19:47:50.689Z,98973.94
2019-02-20T19:51:14.277Z,98979.63
2019-02-20T19:54:24.709Z,98982.56
2019-02-20T19:57:28.408Z,98983.39
2019-02-20T20:00:18.702Z,98982.48
2019-02-20T20:03:05.270Z,98988.22
2019-02-20T20:06:23.048Z,98989.47
2019-02-20T20:09:32.758Z,98995.58
2019-02-20T20:12:35.072Z,99000.86
2019-02-20T20:15:42.264Z,99008.74
2019-02-20T20:18:43.126Z,99004.05
2019-02-20T20:21:42.020Z,99006.35
2019-02-20T20:24:50.383Z,99008.38
2019-02-20T20:28:00.697Z,99007.05
2019-02-20T20:31:01.695Z,99008.55
2019-02-20T20:33:55.406Z,99016.36
2019-02-20T20:36:58.678Z,99018.89
2019-02-20T20:40:19.427Z,99028.39
2019-02-20T20:43:33.718Z,99028.62
2019-02-20T20:46:18.591Z,99029.80
2019-02-20T20:49:28.818Z,99037.60
2019-02-20T20:52:38.999Z,99039.25
2019-02-20T20:55:52.867Z,99037.74
2019-02-20T20:58:53.868Z,99037.38
2019-02-20T21:01:58.654Z,99035.42
2019-02-20T21:05:10.939Z,99042.76
2019-02-20T21:08:10.692Z,99045.02
2019-02-20T21:11:10.618Z,99029.34
2019-02-20T21:14:14.014Z,99036.13
2019-02-20T21:17:37.467Z,99040.17
2019-02-20T21:20:48.585Z,99047.81
2019-02-20T21:24:01.959Z,99044.58
2019-02-20T21:27:09.384Z,99039.61
2019-02-20T21:30:17.923Z,99039.05
2019-02-20T21:33:38.374Z,99039.81
2019-02-20T21:36:31.107Z,99036.17
2019-02-20T21:39:36.573Z,99046.18
2019-02-20T21:42:43.766Z,99040.01
2019-02-20T21:46:05.720Z,99036.63
2019-02-20T21:49:24.551Z,99032.80
2019-02-20T21:52:25.416Z,99034.59
2019-02-20T21:55:42.381Z,99037.97
2019-02-20T21:59:01.876Z,99032.44
2019-02-20T22:01:47.901Z,99031.52
2019-02-20T22:04:49.381Z,99040.70
2019-02-20T22:08:07.473Z,99048.64
2019-02-20T22:11:27.401Z,99042.03
2019-02-20T22:14:26.762Z,99047.38
2019-02-20T22:17:40.062Z,99047.96
2019-02-20T22:20:46.150Z,99045.69
2019-02-20T22:24:00.020Z,99050.63
2019-02-20T22:26:51.586Z,99044.00
2019-02-20T22:30:03.039Z,99047.92
2019-02-20T22:33:00.145Z,99054.86
2019-02-20T22:36:17.437Z,99048.69
2019-02-20T22:39:19.571Z,99055.82
2019-02-20T22:42:18.334Z,99048.66
2019-02-20T22:45:17.672Z,99049.27
2019-02-20T22:48:17.214Z,99047.52
2019-02-20T22:51:10.779Z,99049.34
2019-02-20T22:54:15.367Z,99051.70
2019-02-20T22:57:42.063Z,99059.80
2019-02-20T23:00:52.995Z,99057.06
2019-02-20T23:03:49.737Z,99061.59
2019-02-20T23:06:45.238Z,99061.47
2019-02-20T23:09:53.710Z,99064.42
2019-02-20T23:12:58.902Z,99063.83
2019-02-20T23:15:29.231Z,99066.50
2019-02-20T23:17:59.441Z,99064.95
2019-02-20T23:20:29.587Z,99067.31
2019-02-20T23:22:59.779Z,99064.13
2019-02-20T23:25:29.938Z,99062.18
2019-02-20T23:28:01.322Z,99063.81
2019-02-20T23:30:31.522Z,99069.89
2019-02-20T23:33:02.024Z,99071.65
2019-02-20T23:35:32.504Z,99071.65
2019-02-20T23:38:03.056Z,99070.03
2019-02-20T23:40:33.283Z,99075.52
2019-02-20T23:43:04.006Z,99073.27
2019-02-20T23:45:35.874Z,99071.94
2019-02-20T23:48:06.466Z,99077.84
2019-02-20T23:50:36.701Z,99084.33
2019-02-20T23:53:07.053Z,99079.56
2019-02-20T23:55:37.244Z,99083.70
2019-02-20T23:58:07.516Z,99082.56
